sensor_id;sensor_type;location;lat;lon;timestamp;temperature;humidity
13796;SHT30;40911;51.552;9.874;2024-02-21T00:02:22;7.59;89.72
13796;SHT30;40911;51.552;9.874;2024-02-21T00:04:44;7.56;90.07
13796;SHT30;40911;51.552;9.874;2024-02-21T00:07:06;7.56;89.90
13796;SHT30;40911;51.552;9.874;2024-02-21T00:09:27;7.48;91.07
13796;SHT30;40911;51.552;9.874;2024-02-21T00:11:49;7.45;91.58
13796;SHT30;40911;51.552;9.874;2024-02-21T00:14:10;7.44;91.74
13796;SHT30;40911;51.552;9.874;2024-02-21T00:16:32;7.39;92.14
13796;SHT30;40911;51.552;9.874;2024-02-21T00:18:55;7.39;92.05
13796;SHT30;40911;51.552;9.874;2024-02-21T00:21:17;7.37;92.05
13796;SHT30;40911;51.552;9.874;2024-02-21T00:23:39;7.35;92.34
13796;SHT30;40911;51.552;9.874;2024-02-21T00:26:00;7.38;92.23
13796;SHT30;40911;51.552;9.874;2024-02-21T00:28:22;7.32;92.06
13796;SHT30;40911;51.552;9.874;2024-02-21T00:30:44;7.35;91.93
13796;SHT30;40911;51.552;9.874;2024-02-21T00:33:05;7.35;92.21
13796;SHT30;40911;51.552;9.874;2024-02-21T00:35:28;7.34;92.32
13796;SHT30;40911;51.552;9.874;2024-02-21T00:37:50;7.34;92.53
13796;SHT30;40911;51.552;9.874;2024-02-21T00:40:12;7.32;92.46
13796;SHT30;40911;51.552;9.874;2024-02-21T00:42:36;7.28;92.59
13796;SHT30;40911;51.552;9.874;2024-02-21T00:44:58;7.30;92.81
13796;SHT30;40911;51.552;9.874;2024-02-21T00:47:19;7.27;92.83
13796;SHT30;40911;51.552;9.874;2024-02-21T00:49:41;7.27;92.52
13796;SHT30;40911;51.552;9.874;2024-02-21T00:52:04;7.27;92.59
13796;SHT30;40911;51.552;9.874;2024-02-21T00:54:26;7.28;92.36
13796;SHT30;40911;51.552;9.874;2024-02-21T00:56:47;7.27;92.38
13796;SHT30;40911;51.552;9.874;2024-02-21T00:59:09;7.28;92.40
13796;SHT30;40911;51.552;9.874;2024-02-21T01:01:30;7.26;92.66
13796;SHT30;40911;51.552;9.874;2024-02-21T01:03:52;7.24;92.53
13796;SHT30;40911;51.552;9.874;2024-02-21T01:06:14;7.27;92.43
13796;SHT30;40911;51.552;9.874;2024-02-21T01:08:37;7.27;92.48
13796;SHT30;40911;51.552;9.874;2024-02-21T01:10:59;7.31;92.43
13796;SHT30;40911;51.552;9.874;2024-02-21T01:13:20;7.28;92.40
13796;SHT30;40911;51.552;9.874;2024-02-21T01:15:42;7.31;92.21
13796;SHT30;40911;51.552;9.874;2024-02-21T01:18:04;7.31;92.14
13796;SHT30;40911;51.552;9.874;2024-02-21T01:20:26;7.32;92.08
13796;SHT30;40911;51.552;9.874;2024-02-21T01:22:48;7.31;92.17
13796;SHT30;40911;51.552;9.874;2024-02-21T01:25:11;7.32;91.89
13796;SHT30;40911;51.552;9.874;2024-02-21T01:27:32;7.30;92.23
13796;SHT30;40911;51.552;9.874;2024-02-21T01:29:54;7.31;92.30
13796;SHT30;40911;51.552;9.874;2024-02-21T01:32:16;7.30;92.14
13796;SHT30;40911;51.552;9.874;2024-02-21T01:34:37;7.32;92.00
13796;SHT30;40911;51.552;9.874;2024-02-21T01:36:59;7.31;92.07
13796;SHT30;40911;51.552;9.874;2024-02-21T01:39:24;7.32;92.24
13796;SHT30;40911;51.552;9.874;2024-02-21T01:41:47;7.30;92.37
13796;SHT30;40911;51.552;9.874;2024-02-21T01:44:09;7.27;92.62
13796;SHT30;40911;51.552;9.874;2024-02-21T01:46:30;7.24;92.50
13796;SHT30;40911;51.552;9.874;2024-02-21T01:48:52;7.28;92.70
13796;SHT30;40911;51.552;9.874;2024-02-21T01:51:15;7.28;92.72
13796;SHT30;40911;51.552;9.874;2024-02-21T01:53:38;7.27;92.84
13796;SHT30;40911;51.552;9.874;2024-02-21T01:56:02;7.27;92.64
13796;SHT30;40911;51.552;9.874;2024-02-21T01:58:28;7.23;92.93
13796;SHT30;40911;51.552;9.874;2024-02-21T02:00:50;7.27;92.73
13796;SHT30;40911;51.552;9.874;2024-02-21T02:03:13;7.27;92.69
13796;SHT30;40911;51.552;9.874;2024-02-21T02:05:37;7.27;92.77
13796;SHT30;40911;51.552;9.874;2024-02-21T02:07:58;7.23;92.80
13796;SHT30;40911;51.552;9.874;2024-02-21T02:10:20;7.28;92.45
13796;SHT30;40911;51.552;9.874;2024-02-21T02:12:41;7.31;92.60
13796;SHT30;40911;51.552;9.874;2024-02-21T02:15:05;7.30;92.34
13796;SHT30;40911;51.552;9.874;2024-02-21T02:17:27;7.31;92.53
13796;SHT30;40911;51.552;9.874;2024-02-21T02:19:48;7.28;92.88
13796;SHT30;40911;51.552;9.874;2024-02-21T02:22:18;7.30;92.69
13796;SHT30;40911;51.552;9.874;2024-02-21T02:24:45;7.30;92.74
13796;SHT30;40911;51.552;9.874;2024-02-21T02:27:06;7.26;92.80
13796;SHT30;40911;51.552;9.874;2024-02-21T02:29:28;7.30;92.34
13796;SHT30;40911;51.552;9.874;2024-02-21T02:31:49;7.34;92.09
13796;SHT30;40911;51.552;9.874;2024-02-21T02:34:11;7.35;92.16
13796;SHT30;40911;51.552;9.874;2024-02-21T02:36:33;7.34;92.23
13796;SHT30;40911;51.552;9.874;2024-02-21T02:38:54;7.34;91.95
13796;SHT30;40911;51.552;9.874;2024-02-21T02:41:17;7.34;92.14
13796;SHT30;40911;51.552;9.874;2024-02-21T02:43:39;7.30;92.46
13796;SHT30;40911;51.552;9.874;2024-02-21T02:46:00;7.30;92.53
13796;SHT30;40911;51.552;9.874;2024-02-21T02:48:22;7.27;92.63
13796;SHT30;40911;51.552;9.874;2024-02-21T02:50:44;7.24;92.70
13796;SHT30;40911;51.552;9.874;2024-02-21T02:53:06;7.23;92.81
13796;SHT30;40911;51.552;9.874;2024-02-21T02:55:28;7.21;92.93
13796;SHT30;40911;51.552;9.874;2024-02-21T02:57:50;7.20;92.84
13796;SHT30;40911;51.552;9.874;2024-02-21T03:00:13;7.21;92.80
13796;SHT30;40911;51.552;9.874;2024-02-21T03:02:35;7.20;92.83
13796;SHT30;40911;51.552;9.874;2024-02-21T03:04:57;7.24;92.69
13796;SHT30;40911;51.552;9.874;2024-02-21T03:07:19;7.24;92.54
13796;SHT30;40911;51.552;9.874;2024-02-21T03:09:41;7.26;92.73
13796;SHT30;40911;51.552;9.874;2024-02-21T03:12:03;7.23;92.71
13796;SHT30;40911;51.552;9.874;2024-02-21T03:14:27;7.23;92.64
13796;SHT30;40911;51.552;9.874;2024-02-21T03:16:51;7.24;92.60
13796;SHT30;40911;51.552;9.874;2024-02-21T03:19:12;7.23;92.66
13796;SHT30;40911;51.552;9.874;2024-02-21T03:21:34;7.21;92.65
13796;SHT30;40911;51.552;9.874;2024-02-21T03:23:55;7.24;92.68
13796;SHT30;40911;51.552;9.874;2024-02-21T03:26:17;7.24;92.64
13796;SHT30;40911;51.552;9.874;2024-02-21T03:28:39;7.23;92.70
13796;SHT30;40911;51.552;9.874;2024-02-21T03:31:02;7.21;92.79
13796;SHT30;40911;51.552;9.874;2024-02-21T03:33:23;7.23;92.46
13796;SHT30;40911;51.552;9.874;2024-02-21T03:35:45;7.23;92.81
13796;SHT30;40911;51.552;9.874;2024-02-21T03:38:07;7.23;92.74
13796;SHT30;40911;51.552;9.874;2024-02-21T03:40:28;7.24;92.73
13796;SHT30;40911;51.552;9.874;2024-02-21T03:42:50;7.24;92.84
13796;SHT30;40911;51.552;9.874;2024-02-21T03:45:11;7.23;92.88
13796;SHT30;40911;51.552;9.874;2024-02-21T03:47:34;7.20;92.89
13796;SHT30;40911;51.552;9.874;2024-02-21T03:49:56;7.26;92.64
13796;SHT30;40911;51.552;9.874;2024-02-21T03:52:18;7.27;92.54
13796;SHT30;40911;51.552;9.874;2024-02-21T03:54:40;7.26;92.55
13796;SHT30;40911;51.552;9.874;2024-02-21T03:57:01;7.24;92.71
13796;SHT30;40911;51.552;9.874;2024-02-21T03:59:23;7.23;92.71
13796;SHT30;40911;51.552;9.874;2024-02-21T04:01:45;7.27;92.56
13796;SHT30;40911;51.552;9.874;2024-02-21T04:04:09;7.27;92.50
13796;SHT30;40911;51.552;9.874;2024-02-21T04:06:30;7.31;92.21
13796;SHT30;40911;51.552;9.874;2024-02-21T04:08:52;7.31;92.34
13796;SHT30;40911;51.552;9.874;2024-02-21T04:11:14;7.28;92.23
13796;SHT30;40911;51.552;9.874;2024-02-21T04:13:35;7.27;92.41
13796;SHT30;40911;51.552;9.874;2024-02-21T04:15:57;7.26;92.31
13796;SHT30;40911;51.552;9.874;2024-02-21T04:18:18;7.24;92.35
13796;SHT30;40911;51.552;9.874;2024-02-21T04:20:41;7.24;92.38
13796;SHT30;40911;51.552;9.874;2024-02-21T04:23:03;7.21;92.43
13796;SHT30;40911;51.552;9.874;2024-02-21T04:25:25;7.18;92.55
13796;SHT30;40911;51.552;9.874;2024-02-21T04:27:47;7.16;92.64
13796;SHT30;40911;51.552;9.874;2024-02-21T04:30:09;7.13;92.72
13796;SHT30;40911;51.552;9.874;2024-02-21T04:32:31;7.16;92.63
13796;SHT30;40911;51.552;9.874;2024-02-21T04:34:52;7.11;92.88
13796;SHT30;40911;51.552;9.874;2024-02-21T04:37:15;7.13;92.74
13796;SHT30;40911;51.552;9.874;2024-02-21T04:39:37;7.17;92.63
13796;SHT30;40911;51.552;9.874;2024-02-21T04:41:58;7.21;92.04
13796;SHT30;40911;51.552;9.874;2024-02-21T04:44:20;7.28;91.80
13796;SHT30;40911;51.552;9.874;2024-02-21T04:46:42;7.27;91.68
13796;SHT30;40911;51.552;9.874;2024-02-21T04:49:04;7.39;90.82
13796;SHT30;40911;51.552;9.874;2024-02-21T04:51:26;7.34;90.96
13796;SHT30;40911;51.552;9.874;2024-02-21T04:53:49;7.38;90.66
13796;SHT30;40911;51.552;9.874;2024-02-21T04:56:10;7.37;90.78
13796;SHT30;40911;51.552;9.874;2024-02-21T04:58:32;7.41;90.68
13796;SHT30;40911;51.552;9.874;2024-02-21T05:00:53;7.38;90.71
13796;SHT30;40911;51.552;9.874;2024-02-21T05:03:15;7.31;91.08
13796;SHT30;40911;51.552;9.874;2024-02-21T05:05:39;7.27;91.21
13796;SHT30;40911;51.552;9.874;2024-02-21T05:08:00;7.34;91.00
13796;SHT30;40911;51.552;9.874;2024-02-21T05:10:23;7.30;91.09
13796;SHT30;40911;51.552;9.874;2024-02-21T05:12:45;7.24;91.43
13796;SHT30;40911;51.552;9.874;2024-02-21T05:15:07;7.20;91.68
13796;SHT30;40911;51.552;9.874;2024-02-21T05:17:28;7.18;91.68
13796;SHT30;40911;51.552;9.874;2024-02-21T05:19:50;7.18;91.78
13796;SHT30;40911;51.552;9.874;2024-02-21T05:22:12;7.17;91.75
13796;SHT30;40911;51.552;9.874;2024-02-21T05:24:33;7.23;91.61
13796;SHT30;40911;51.552;9.874;2024-02-21T05:26:58;7.26;91.60
13796;SHT30;40911;51.552;9.874;2024-02-21T05:29:19;7.27;91.52
13796;SHT30;40911;51.552;9.874;2024-02-21T05:31:55;7.30;91.49
13796;SHT30;40911;51.552;9.874;2024-02-21T05:34:17;7.28;91.40
13796;SHT30;40911;51.552;9.874;2024-02-21T05:36:39;7.27;91.72
13796;SHT30;40911;51.552;9.874;2024-02-21T05:39:00;7.35;91.38
13796;SHT30;40911;51.552;9.874;2024-02-21T05:41:22;7.34;91.01
13796;SHT30;40911;51.552;9.874;2024-02-21T05:43:45;7.35;91.24
13796;SHT30;40911;51.552;9.874;2024-02-21T05:46:06;7.28;91.58
13796;SHT30;40911;51.552;9.874;2024-02-21T05:48:28;7.32;91.31
13796;SHT30;40911;51.552;9.874;2024-02-21T05:50:50;7.35;91.15
13796;SHT30;40911;51.552;9.874;2024-02-21T05:53:12;7.32;91.43
13796;SHT30;40911;51.552;9.874;2024-02-21T05:55:33;7.35;91.21
13796;SHT30;40911;51.552;9.874;2024-02-21T05:57:55;7.35;91.35
13796;SHT30;40911;51.552;9.874;2024-02-21T06:00:18;7.37;91.17
13796;SHT30;40911;51.552;9.874;2024-02-21T06:02:40;7.34;91.35
13796;SHT30;40911;51.552;9.874;2024-02-21T06:05:01;7.35;91.50
13796;SHT30;40911;51.552;9.874;2024-02-21T06:07:23;7.31;91.59
13796;SHT30;40911;51.552;9.874;2024-02-21T06:09:44;7.31;91.56
13796;SHT30;40911;51.552;9.874;2024-02-21T06:12:06;7.31;91.58
13796;SHT30;40911;51.552;9.874;2024-02-21T06:14:28;7.30;91.60
13796;SHT30;40911;51.552;9.874;2024-02-21T06:16:51;7.32;91.40
13796;SHT30;40911;51.552;9.874;2024-02-21T06:19:12;7.26;91.67
13796;SHT30;40911;51.552;9.874;2024-02-21T06:21:34;7.20;91.65
13796;SHT30;40911;51.552;9.874;2024-02-21T06:23:55;7.27;91.34
13796;SHT30;40911;51.552;9.874;2024-02-21T06:26:17;7.26;91.18
13796;SHT30;40911;51.552;9.874;2024-02-21T06:28:39;7.24;91.22
13796;SHT30;40911;51.552;9.874;2024-02-21T06:31:00;7.28;91.11
13796;SHT30;40911;51.552;9.874;2024-02-21T06:33:23;7.32;90.98
13796;SHT30;40911;51.552;9.874;2024-02-21T06:35:45;7.31;90.87
13796;SHT30;40911;51.552;9.874;2024-02-21T06:38:07;7.30;90.81
13796;SHT30;40911;51.552;9.874;2024-02-21T06:40:29;7.32;90.67
13796;SHT30;40911;51.552;9.874;2024-02-21T06:42:58;7.30;90.86
13796;SHT30;40911;51.552;9.874;2024-02-21T06:45:20;7.27;90.77
13796;SHT30;40911;51.552;9.874;2024-02-21T06:47:41;7.31;90.59
13796;SHT30;40911;51.552;9.874;2024-02-21T06:50:05;7.31;90.54
13796;SHT30;40911;51.552;9.874;2024-02-21T06:52:27;7.32;90.27
13796;SHT30;40911;51.552;9.874;2024-02-21T06:54:48;7.31;90.52
13796;SHT30;40911;51.552;9.874;2024-02-21T06:57:10;7.32;90.47
13796;SHT30;40911;51.552;9.874;2024-02-21T06:59:32;7.39;89.81
13796;SHT30;40911;51.552;9.874;2024-02-21T07:01:54;7.38;90.02
13796;SHT30;40911;51.552;9.874;2024-02-21T07:04:16;7.39;89.91
13796;SHT30;40911;51.552;9.874;2024-02-21T07:06:39;7.39;90.15
13796;SHT30;40911;51.552;9.874;2024-02-21T07:09:00;7.39;90.38
13796;SHT30;40911;51.552;9.874;2024-02-21T07:11:22;7.41;90.17
13796;SHT30;40911;51.552;9.874;2024-02-21T07:13:44;7.44;89.93
13796;SHT30;40911;51.552;9.874;2024-02-21T07:16:06;7.54;89.25
13796;SHT30;40911;51.552;9.874;2024-02-21T07:18:28;7.56;89.78
13796;SHT30;40911;51.552;9.874;2024-02-21T07:20:49;7.62;89.16
13796;SHT30;40911;51.552;9.874;2024-02-21T07:23:12;7.63;89.42
13796;SHT30;40911;51.552;9.874;2024-02-21T07:25:34;7.69;89.02
13796;SHT30;40911;51.552;9.874;2024-02-21T07:27:56;7.70;89.12
13796;SHT30;40911;51.552;9.874;2024-02-21T07:30:17;7.72;89.22
13796;SHT30;40911;51.552;9.874;2024-02-21T07:32:39;7.81;88.60
13796;SHT30;40911;51.552;9.874;2024-02-21T07:35:01;7.85;87.99
13796;SHT30;40911;51.552;9.874;2024-02-21T07:37:23;7.85;88.39
13796;SHT30;40911;51.552;9.874;2024-02-21T07:39:46;7.87;88.31
13796;SHT30;40911;51.552;9.874;2024-02-21T07:42:08;7.86;88.57
13796;SHT30;40911;51.552;9.874;2024-02-21T07:44:29;7.83;88.55
13796;SHT30;40911;51.552;9.874;2024-02-21T07:46:52;7.81;88.40
13796;SHT30;40911;51.552;9.874;2024-02-21T07:49:13;7.85;88.15
13796;SHT30;40911;51.552;9.874;2024-02-21T07:51:35;7.92;87.89
13796;SHT30;40911;51.552;9.874;2024-02-21T07:53:56;8.03;87.90
13796;SHT30;40911;51.552;9.874;2024-02-21T07:56:20;8.16;87.28
13796;SHT30;40911;51.552;9.874;2024-02-21T07:58:41;8.42;86.46
13796;SHT30;40911;51.552;9.874;2024-02-21T08:01:03;8.49;86.48
13796;SHT30;40911;51.552;9.874;2024-02-21T08:03:25;8.65;86.02
13796;SHT30;40911;51.552;9.874;2024-02-21T08:05:47;8.56;85.39
13796;SHT30;40911;51.552;9.874;2024-02-21T08:08:08;8.46;85.57
13796;SHT30;40911;51.552;9.874;2024-02-21T08:10:29;8.46;86.05
13796;SHT30;40911;51.552;9.874;2024-02-21T08:12:52;8.48;86.28
13796;SHT30;40911;51.552;9.874;2024-02-21T08:15:13;8.34;85.94
13796;SHT30;40911;51.552;9.874;2024-02-21T08:17:36;8.31;86.01
13796;SHT30;40911;51.552;9.874;2024-02-21T08:19:58;8.34;86.11
13796;SHT30;40911;51.552;9.874;2024-02-21T08:22:19;8.33;86.49
13796;SHT30;40911;51.552;9.874;2024-02-21T08:24:41;8.24;86.02
13796;SHT30;40911;51.552;9.874;2024-02-21T08:27:03;8.18;86.20
13796;SHT30;40911;51.552;9.874;2024-02-21T08:29:26;8.21;85.42
13796;SHT30;40911;51.552;9.874;2024-02-21T08:31:48;8.18;85.63
13796;SHT30;40911;51.552;9.874;2024-02-21T08:34:09;8.23;85.18
13796;SHT30;40911;51.552;9.874;2024-02-21T08:36:32;8.25;84.87
13796;SHT30;40911;51.552;9.874;2024-02-21T08:38:54;8.27;85.25
13796;SHT30;40911;51.552;9.874;2024-02-21T08:41:15;8.28;84.72
13796;SHT30;40911;51.552;9.874;2024-02-21T08:43:37;8.37;84.21
13796;SHT30;40911;51.552;9.874;2024-02-21T08:46:00;8.40;84.70
13796;SHT30;40911;51.552;9.874;2024-02-21T08:48:21;8.46;84.92
13796;SHT30;40911;51.552;9.874;2024-02-21T08:50:45;8.45;84.83
13796;SHT30;40911;51.552;9.874;2024-02-21T08:53:07;8.48;85.53
13796;SHT30;40911;51.552;9.874;2024-02-21T08:55:28;8.49;85.63
13796;SHT30;40911;51.552;9.874;2024-02-21T08:57:50;8.48;85.41
13796;SHT30;40911;51.552;9.874;2024-02-21T09:00:12;8.46;85.10
13796;SHT30;40911;51.552;9.874;2024-02-21T09:02:36;8.59;85.43
13796;SHT30;40911;51.552;9.874;2024-02-21T09:04:59;8.59;84.39
13796;SHT30;40911;51.552;9.874;2024-02-21T09:07:20;8.63;83.96
13796;SHT30;40911;51.552;9.874;2024-02-21T09:09:42;8.75;83.88
13796;SHT30;40911;51.552;9.874;2024-02-21T09:12:05;8.79;83.83
13796;SHT30;40911;51.552;9.874;2024-02-21T09:14:28;8.80;83.45
13796;SHT30;40911;51.552;9.874;2024-02-21T09:16:49;8.89;83.33
13796;SHT30;40911;51.552;9.874;2024-02-21T09:19:12;8.93;83.34
13796;SHT30;40911;51.552;9.874;2024-02-21T09:21:35;9.04;83.20
13796;SHT30;40911;51.552;9.874;2024-02-21T09:23:57;8.99;83.64
13796;SHT30;40911;51.552;9.874;2024-02-21T09:26:19;8.83;82.95
13796;SHT30;40911;51.552;9.874;2024-02-21T09:28:41;8.88;83.11
13796;SHT30;40911;51.552;9.874;2024-02-21T09:31:03;8.89;83.22
13796;SHT30;40911;51.552;9.874;2024-02-21T09:33:24;8.97;83.06
13796;SHT30;40911;51.552;9.874;2024-02-21T09:35:47;9.35;82.77
13796;SHT30;40911;51.552;9.874;2024-02-21T09:38:10;9.26;82.72
13796;SHT30;40911;51.552;9.874;2024-02-21T09:40:31;9.23;81.80
13796;SHT30;40911;51.552;9.874;2024-02-21T09:42:54;9.11;82.07
13796;SHT30;40911;51.552;9.874;2024-02-21T09:45:22;9.11;82.01
13796;SHT30;40911;51.552;9.874;2024-02-21T09:47:53;9.23;82.11
13796;SHT30;40911;51.552;9.874;2024-02-21T09:50:17;9.42;81.88
13796;SHT30;40911;51.552;9.874;2024-02-21T09:52:41;9.31;82.49
13796;SHT30;40911;51.552;9.874;2024-02-21T09:55:06;9.27;82.37
13796;SHT30;40911;51.552;9.874;2024-02-21T09:57:32;9.38;82.11
13796;SHT30;40911;51.552;9.874;2024-02-21T09:59:55;9.32;82.25
13796;SHT30;40911;51.552;9.874;2024-02-21T10:02:19;9.38;82.02
13796;SHT30;40911;51.552;9.874;2024-02-21T10:04:41;9.34;82.09
13796;SHT30;40911;51.552;9.874;2024-02-21T10:07:02;9.26;82.47
13796;SHT30;40911;51.552;9.874;2024-02-21T10:09:27;9.21;82.52
13796;SHT30;40911;51.552;9.874;2024-02-21T10:11:49;9.19;82.56
13796;SHT30;40911;51.552;9.874;2024-02-21T10:14:11;9.30;82.67
13796;SHT30;40911;51.552;9.874;2024-02-21T10:16:33;9.21;82.84
13796;SHT30;40911;51.552;9.874;2024-02-21T10:18:55;9.16;82.67
13796;SHT30;40911;51.552;9.874;2024-02-21T10:21:17;9.09;83.20
13796;SHT30;40911;51.552;9.874;2024-02-21T10:23:42;9.17;83.24
13796;SHT30;40911;51.552;9.874;2024-02-21T10:26:07;9.23;82.83
13796;SHT30;40911;51.552;9.874;2024-02-21T10:28:29;9.17;83.09
13796;SHT30;40911;51.552;9.874;2024-02-21T10:30:50;9.38;82.95
13796;SHT30;40911;51.552;9.874;2024-02-21T10:33:15;9.35;82.56
13796;SHT30;40911;51.552;9.874;2024-02-21T10:35:37;9.58;81.95
13796;SHT30;40911;51.552;9.874;2024-02-21T10:37:59;9.65;82.03
13796;SHT30;40911;51.552;9.874;2024-02-21T10:40:22;9.82;82.27
13796;SHT30;40911;51.552;9.874;2024-02-21T10:42:46;9.75;82.45
13796;SHT30;40911;51.552;9.874;2024-02-21T10:45:09;9.90;82.49
13796;SHT30;40911;51.552;9.874;2024-02-21T10:47:32;9.55;82.33
13796;SHT30;40911;51.552;9.874;2024-02-21T10:50:02;9.63;82.89
13796;SHT30;40911;51.552;9.874;2024-02-21T10:52:29;9.42;82.05
13796;SHT30;40911;51.552;9.874;2024-02-21T10:54:55;9.49;82.46
13796;SHT30;40911;51.552;9.874;2024-02-21T10:57:18;9.54;82.40
13796;SHT30;40911;51.552;9.874;2024-02-21T10:59:44;9.68;82.78
13796;SHT30;40911;51.552;9.874;2024-02-21T11:02:06;9.62;82.09
13796;SHT30;40911;51.552;9.874;2024-02-21T11:04:28;9.72;82.65
13796;SHT30;40911;51.552;9.874;2024-02-21T11:06:51;9.61;82.83
13796;SHT30;40911;51.552;9.874;2024-02-21T11:09:13;9.42;82.78
13796;SHT30;40911;51.552;9.874;2024-02-21T11:11:35;9.78;83.17
13796;SHT30;40911;51.552;9.874;2024-02-21T11:14:05;9.59;82.74
13796;SHT30;40911;51.552;9.874;2024-02-21T11:16:35;9.57;82.81
13796;SHT30;40911;51.552;9.874;2024-02-21T11:19:04;9.66;82.58
13796;SHT30;40911;51.552;9.874;2024-02-21T11:21:33;9.52;82.46
13796;SHT30;40911;51.552;9.874;2024-02-21T11:23:55;9.47;82.01
13796;SHT30;40911;51.552;9.874;2024-02-21T11:26:19;9.55;82.56
13796;SHT30;40911;51.552;9.874;2024-02-21T11:28:40;9.62;82.45
13796;SHT30;40911;51.552;9.874;2024-02-21T11:31:07;9.47;82.23
13796;SHT30;40911;51.552;9.874;2024-02-21T11:33:33;9.49;81.93
13796;SHT30;40911;51.552;9.874;2024-02-21T11:35:54;9.61;82.34
13796;SHT30;40911;51.552;9.874;2024-02-21T11:38:16;9.61;82.26
13796;SHT30;40911;51.552;9.874;2024-02-21T11:40:38;9.52;81.91
13796;SHT30;40911;51.552;9.874;2024-02-21T11:43:00;9.48;82.25
13796;SHT30;40911;51.552;9.874;2024-02-21T11:45:25;9.54;81.87
13796;SHT30;40911;51.552;9.874;2024-02-21T11:47:48;9.49;81.69
13796;SHT30;40911;51.552;9.874;2024-02-21T11:50:11;9.49;81.69
13796;SHT30;40911;51.552;9.874;2024-02-21T11:52:33;9.51;81.64
13796;SHT30;40911;51.552;9.874;2024-02-21T11:54:55;9.54;81.02
13796;SHT30;40911;51.552;9.874;2024-02-21T11:57:24;9.63;81.11
13796;SHT30;40911;51.552;9.874;2024-02-21T11:59:46;9.57;80.90
13796;SHT30;40911;51.552;9.874;2024-02-21T12:02:09;9.65;80.83
13796;SHT30;40911;51.552;9.874;2024-02-21T12:04:31;9.49;80.47
13796;SHT30;40911;51.552;9.874;2024-02-21T12:06:54;9.58;80.78
13796;SHT30;40911;51.552;9.874;2024-02-21T12:09:16;9.70;80.44
13796;SHT30;40911;51.552;9.874;2024-02-21T12:11:38;9.76;80.36
13796;SHT30;40911;51.552;9.874;2024-02-21T12:14:00;9.68;80.42
13796;SHT30;40911;51.552;9.874;2024-02-21T12:16:23;9.76;80.49
13796;SHT30;40911;51.552;9.874;2024-02-21T12:18:45;9.70;81.21
13796;SHT30;40911;51.552;9.874;2024-02-21T12:21:06;9.86;81.39
13796;SHT30;40911;51.552;9.874;2024-02-21T12:23:29;9.78;81.02
13796;SHT30;40911;51.552;9.874;2024-02-21T12:25:51;9.63;81.01
13796;SHT30;40911;51.552;9.874;2024-02-21T12:28:14;9.57;81.59
13796;SHT30;40911;51.552;9.874;2024-02-21T12:30:37;9.66;81.34
13796;SHT30;40911;51.552;9.874;2024-02-21T12:33:00;9.66;81.68
13796;SHT30;40911;51.552;9.874;2024-02-21T12:35:22;9.42;82.15
13796;SHT30;40911;51.552;9.874;2024-02-21T12:37:44;9.28;82.50
13796;SHT30;40911;51.552;9.874;2024-02-21T12:40:08;9.23;82.70
13796;SHT30;40911;51.552;9.874;2024-02-21T12:42:31;9.23;82.96
13796;SHT30;40911;51.552;9.874;2024-02-21T12:44:53;9.30;82.84
13796;SHT30;40911;51.552;9.874;2024-02-21T12:47:15;9.16;82.92
13796;SHT30;40911;51.552;9.874;2024-02-21T12:49:38;9.19;83.15
13796;SHT30;40911;51.552;9.874;2024-02-21T12:52:00;9.24;82.85
13796;SHT30;40911;51.552;9.874;2024-02-21T12:54:22;9.32;82.78
13796;SHT30;40911;51.552;9.874;2024-02-21T12:56:45;9.31;82.90
13796;SHT30;40911;51.552;9.874;2024-02-21T12:59:06;9.37;83.27
13796;SHT30;40911;51.552;9.874;2024-02-21T13:01:29;9.37;83.23
13796;SHT30;40911;51.552;9.874;2024-02-21T13:03:51;9.49;82.88
13796;SHT30;40911;51.552;9.874;2024-02-21T13:06:12;9.40;82.87
13796;SHT30;40911;51.552;9.874;2024-02-21T13:08:34;9.52;82.74
13796;SHT30;40911;51.552;9.874;2024-02-21T13:10:56;9.58;82.76
13796;SHT30;40911;51.552;9.874;2024-02-21T13:13:19;9.54;82.52
13796;SHT30;40911;51.552;9.874;2024-02-21T13:15:41;9.66;82.75
13796;SHT30;40911;51.552;9.874;2024-02-21T13:18:04;9.61;82.27
13796;SHT30;40911;51.552;9.874;2024-02-21T13:20:25;9.59;81.77
13796;SHT30;40911;51.552;9.874;2024-02-21T13:22:48;9.62;82.26
13796;SHT30;40911;51.552;9.874;2024-02-21T13:25:10;9.66;82.22
13796;SHT30;40911;51.552;9.874;2024-02-21T13:27:35;9.61;82.12
13796;SHT30;40911;51.552;9.874;2024-02-21T13:29:58;9.70;82.20
13796;SHT30;40911;51.552;9.874;2024-02-21T13:32:20;9.61;81.85
13796;SHT30;40911;51.552;9.874;2024-02-21T13:34:42;9.73;82.14
13796;SHT30;40911;51.552;9.874;2024-02-21T13:37:04;9.69;81.89
13796;SHT30;40911;51.552;9.874;2024-02-21T13:39:27;9.72;81.50
13796;SHT30;40911;51.552;9.874;2024-02-21T13:41:48;9.62;81.33
13796;SHT30;40911;51.552;9.874;2024-02-21T13:44:10;9.62;81.38
13796;SHT30;40911;51.552;9.874;2024-02-21T13:46:34;9.61;81.36
13796;SHT30;40911;51.552;9.874;2024-02-21T13:49:04;9.66;81.19
13796;SHT30;40911;51.552;9.874;2024-02-21T13:51:26;9.72;81.18
13796;SHT30;40911;51.552;9.874;2024-02-21T13:53:48;9.83;81.30
13796;SHT30;40911;51.552;9.874;2024-02-21T13:56:09;9.76;81.17
13796;SHT30;40911;51.552;9.874;2024-02-21T13:58:31;9.76;81.32
13796;SHT30;40911;51.552;9.874;2024-02-21T14:00:53;9.75;81.19
13796;SHT30;40911;51.552;9.874;2024-02-21T14:03:16;9.70;80.29
13796;SHT30;40911;51.552;9.874;2024-02-21T14:05:38;9.69;80.29
13796;SHT30;40911;51.552;9.874;2024-02-21T14:08:00;9.63;79.95
13796;SHT30;40911;51.552;9.874;2024-02-21T14:10:22;9.65;79.75
13796;SHT30;40911;51.552;9.874;2024-02-21T14:12:44;9.69;80.01
13796;SHT30;40911;51.552;9.874;2024-02-21T14:15:06;9.63;80.04
13796;SHT30;40911;51.552;9.874;2024-02-21T14:17:29;9.59;80.09
13796;SHT30;40911;51.552;9.874;2024-02-21T14:19:52;9.66;79.89
13796;SHT30;40911;51.552;9.874;2024-02-21T14:22:13;9.62;80.30
13796;SHT30;40911;51.552;9.874;2024-02-21T14:24:35;9.66;80.42
13796;SHT30;40911;51.552;9.874;2024-02-21T14:26:57;9.62;80.42
13796;SHT30;40911;51.552;9.874;2024-02-21T14:29:20;9.52;79.89
13796;SHT30;40911;51.552;9.874;2024-02-21T14:31:41;9.51;79.98
13796;SHT30;40911;51.552;9.874;2024-02-21T14:34:03;9.48;79.94
13796;SHT30;40911;51.552;9.874;2024-02-21T14:36:27;9.45;80.11
13796;SHT30;40911;51.552;9.874;2024-02-21T14:38:48;9.49;80.67
13796;SHT30;40911;51.552;9.874;2024-02-21T14:41:09;9.45;79.77
13796;SHT30;40911;51.552;9.874;2024-02-21T14:43:32;9.49;79.99
13796;SHT30;40911;51.552;9.874;2024-02-21T14:45:54;9.47;79.35
13796;SHT30;40911;51.552;9.874;2024-02-21T14:48:16;9.48;79.12
13796;SHT30;40911;51.552;9.874;2024-02-21T14:50:39;9.47;79.93
13796;SHT30;40911;51.552;9.874;2024-02-21T14:53:02;9.44;78.88
13796;SHT30;40911;51.552;9.874;2024-02-21T14:55:24;9.44;79.37
13796;SHT30;40911;51.552;9.874;2024-02-21T14:57:45;9.51;79.01
13796;SHT30;40911;51.552;9.874;2024-02-21T15:00:09;9.49;78.55
13796;SHT30;40911;51.552;9.874;2024-02-21T15:02:31;9.51;78.94
13796;SHT30;40911;51.552;9.874;2024-02-21T15:04:53;9.52;78.96
13796;SHT30;40911;51.552;9.874;2024-02-21T15:07:15;9.51;78.54
13796;SHT30;40911;51.552;9.874;2024-02-21T15:09:38;9.49;78.50
13796;SHT30;40911;51.552;9.874;2024-02-21T15:12:00;9.51;78.61
13796;SHT30;40911;51.552;9.874;2024-02-21T15:14:22;9.51;78.55